createdAt,value
2023-01-15T00:01:54.845Z,1.45
2023-01-15T00:04:22.085Z,0.80
2023-01-15T00:06:49.525Z,1.10
2023-01-15T00:09:16.815Z,1.42
2023-01-15T00:11:44.034Z,0.90
2023-01-15T00:14:12.442Z,0.93
2023-01-15T00:16:40.806Z,1.13
2023-01-15T00:19:10.911Z,1.27
2023-01-15T00:21:38.208Z,1.40
2023-01-15T00:24:24.160Z,0.93
2023-01-15T00:27:10.405Z,2.05
2023-01-15T00:29:37.680Z,1.05
2023-01-15T00:32:04.891Z,0.85
2023-01-15T00:34:32.137Z,1.05
2023-01-15T00:37:00.965Z,1.00
2023-01-15T00:39:28.260Z,1.02
2023-01-15T00:41:55.522Z,1.08
2023-01-15T00:44:22.802Z,1.05
2023-01-15T00:46:51.843Z,1.02
2023-01-15T00:49:21.274Z,2.00
2023-01-15T00:51:50.084Z,1.10
2023-01-15T00:54:17.393Z,1.50
2023-01-15T00:56:44.648Z,1.08
2023-01-15T00:59:11.934Z,1.30
2023-01-15T01:01:39.203Z,1.58
2023-01-15T01:04:06.499Z,0.90
2023-01-15T01:06:35.381Z,1.23
2023-01-15T01:09:02.611Z,1.30
2023-01-15T01:11:34.359Z,1.23
2023-01-15T01:14:02.435Z,2.38
2023-01-15T01:16:35.730Z,0.82
2023-01-15T01:19:03.792Z,0.82
2023-01-15T01:21:30.989Z,2.08
2023-01-15T01:23:59.526Z,0.60
2023-01-15T01:26:26.850Z,1.08
2023-01-15T01:28:55.514Z,1.10
2023-01-15T01:31:22.830Z,0.85
2023-01-15T01:33:50.062Z,1.23
2023-01-15T01:36:17.296Z,0.93
2023-01-15T01:38:44.908Z,1.10
2023-01-15T01:41:12.140Z,0.82
2023-01-15T01:43:39.348Z,2.45
2023-01-15T01:46:06.731Z,0.95
2023-01-15T01:48:34.547Z,1.63
2023-01-15T01:51:01.765Z,1.42
2023-01-15T01:53:29.012Z,1.25
2023-01-15T01:55:56.421Z,0.77
2023-01-15T01:58:23.629Z,3.05
2023-01-15T02:00:50.974Z,1.20
2023-01-15T02:03:18.312Z,1.08
2023-01-15T02:05:45.534Z,1.17
2023-01-15T02:08:13.995Z,0.95
2023-01-15T02:10:41.640Z,0.90
2023-01-15T02:13:08.858Z,0.90
2023-01-15T02:15:36.142Z,1.98
2023-01-15T02:18:03.360Z,1.15
2023-01-15T02:20:31.044Z,1.25
2023-01-15T02:22:58.266Z,1.30
2023-01-15T02:25:25.853Z,1.17
2023-01-15T02:27:53.164Z,1.25
2023-01-15T02:30:23.162Z,2.05
2023-01-15T02:32:57.107Z,1.60
2023-01-15T02:35:24.679Z,0.70
2023-01-15T02:37:52.257Z,1.35
2023-01-15T02:40:22.431Z,1.40
2023-01-15T02:42:50.226Z,1.13
2023-01-15T02:45:18.824Z,1.23
2023-01-15T02:47:45.986Z,1.23
2023-01-15T02:50:13.291Z,1.60
2023-01-15T02:52:40.910Z,1.38
2023-01-15T02:55:08.140Z,1.85
2023-01-15T02:57:41.354Z,1.30
2023-01-15T03:00:08.588Z,0.90
2023-01-15T03:02:35.809Z,0.95
2023-01-15T03:05:03.060Z,1.10
2023-01-15T03:07:32.705Z,1.60
2023-01-15T03:09:59.976Z,1.08
2023-01-15T03:12:27.552Z,1.10
2023-01-15T03:14:54.885Z,1.70
2023-01-15T03:17:22.970Z,1.30
2023-01-15T03:19:50.352Z,0.95
2023-01-15T03:22:19.964Z,1.13
2023-01-15T03:24:47.185Z,1.20
2023-01-15T03:27:15.719Z,1.17
2023-01-15T03:29:47.127Z,1.25
2023-01-15T03:32:14.364Z,1.05
2023-01-15T03:34:41.680Z,1.70
2023-01-15T03:37:09.419Z,0.90
2023-01-15T03:39:36.864Z,2.40
2023-01-15T03:42:16.324Z,1.38
2023-01-15T03:44:44.150Z,0.93
2023-01-15T03:47:11.337Z,1.58
2023-01-15T03:49:39.407Z,1.08
2023-01-15T03:52:13.520Z,1.17
2023-01-15T03:54:40.819Z,2.38
2023-01-15T03:57:08.368Z,2.00
2023-01-15T03:59:37.806Z,0.90
2023-01-15T04:02:05.215Z,1.60
2023-01-15T04:04:32.535Z,0.93
2023-01-15T04:07:01.527Z,1.33
2023-01-15T04:09:29.041Z,0.95
2023-01-15T04:11:58.711Z,1.23
2023-01-15T04:14:26.149Z,0.90
2023-01-15T04:16:55.232Z,1.58
2023-01-15T04:19:24.784Z,1.27
2023-01-15T04:22:03.944Z,1.30
2023-01-15T04:24:31.283Z,1.25
2023-01-15T04:26:58.449Z,1.23
2023-01-15T04:29:26.387Z,1.27
2023-01-15T04:31:57.516Z,1.10
2023-01-15T04:34:24.940Z,1.30
2023-01-15T04:36:52.195Z,0.80
2023-01-15T04:39:19.404Z,1.30
2023-01-15T04:42:05.370Z,1.17
2023-01-15T04:44:32.582Z,3.55
2023-01-15T04:47:00.202Z,0.98
2023-01-15T04:49:27.512Z,1.08
2023-01-15T04:51:54.728Z,0.63
2023-01-15T04:54:22.756Z,1.02
2023-01-15T04:56:53.136Z,1.65
2023-01-15T04:59:20.371Z,1.20
2023-01-15T05:02:02.066Z,1.63
2023-01-15T05:04:30.221Z,1.10
2023-01-15T05:06:57.475Z,0.90
2023-01-15T05:09:24.711Z,1.13
2023-01-15T05:11:51.967Z,1.10
2023-01-15T05:14:19.209Z,0.98
2023-01-15T05:16:46.459Z,1.67
2023-01-15T05:19:13.995Z,0.88
2023-01-15T05:21:41.205Z,1.00
2023-01-15T05:24:09.158Z,1.00
2023-01-15T05:26:36.370Z,2.03
2023-01-15T05:29:03.621Z,0.85
2023-01-15T05:31:30.895Z,0.85
2023-01-15T05:33:58.136Z,1.15
2023-01-15T05:36:25.345Z,0.90
2023-01-15T05:38:52.882Z,2.10
2023-01-15T05:41:38.966Z,1.13
2023-01-15T05:44:06.640Z,0.88
2023-01-15T05:46:33.897Z,0.70
2023-01-15T05:49:01.213Z,1.08
2023-01-15T05:51:28.503Z,1.08
2023-01-15T05:53:55.673Z,0.80
2023-01-15T05:56:22.919Z,1.02
2023-01-15T05:58:50.093Z,0.93
2023-01-15T06:01:17.428Z,0.77
2023-01-15T06:03:44.742Z,1.73
2023-01-15T06:06:12.037Z,0.95
2023-01-15T06:08:39.239Z,0.95
2023-01-15T06:11:07.324Z,0.98
2023-01-15T06:13:34.526Z,1.52
2023-01-15T06:16:01.794Z,0.80
2023-01-15T06:18:29.057Z,1.73
2023-01-15T06:20:56.276Z,0.73
2023-01-15T06:23:23.477Z,0.80
2023-01-15T06:25:50.653Z,0.60
2023-01-15T06:28:17.921Z,0.95
2023-01-15T06:30:45.077Z,0.93
2023-01-15T06:33:12.325Z,0.90
2023-01-15T06:35:39.526Z,0.88
2023-01-15T06:38:06.777Z,0.85
2023-01-15T06:40:34.007Z,2.13
2023-01-15T06:43:20.128Z,0.90
2023-01-15T06:46:06.216Z,0.88
2023-01-15T06:48:33.461Z,0.82
2023-01-15T06:51:00.867Z,1.05
2023-01-15T06:53:28.201Z,0.82
2023-01-15T06:55:55.378Z,0.60
2023-01-15T06:58:22.688Z,1.20
2023-01-15T07:00:56.006Z,0.77
2023-01-15T07:03:23.311Z,1.42
2023-01-15T07:05:50.542Z,0.85
2023-01-15T07:08:17.810Z,0.93
2023-01-15T07:10:44.993Z,1.00
2023-01-15T07:13:12.422Z,0.93
2023-01-15T07:15:39.772Z,0.75
2023-01-15T07:18:07.193Z,0.90
2023-01-15T07:20:34.435Z,0.68
2023-01-15T07:23:01.756Z,1.08
2023-01-15T07:25:28.928Z,1.45
2023-01-15T07:27:56.169Z,0.80
2023-01-15T07:30:23.408Z,0.80
2023-01-15T07:32:50.615Z,1.05
2023-01-15T07:35:17.839Z,0.70
2023-01-15T07:37:45.161Z,0.93
2023-01-15T07:40:12.461Z,0.80
2023-01-15T07:42:58.631Z,0.90
2023-01-15T07:45:44.636Z,1.38
2023-01-15T07:48:30.785Z,1.48
2023-01-15T07:50:57.990Z,0.88
2023-01-15T07:53:25.200Z,0.57
2023-01-15T07:55:52.541Z,1.02
2023-01-15T07:58:19.689Z,1.10
2023-01-15T08:00:47.024Z,1.92
2023-01-15T08:03:14.310Z,0.77
2023-01-15T08:05:41.539Z,0.82
2023-01-15T08:08:08.749Z,0.73
2023-01-15T08:10:55.923Z,0.70
2023-01-15T08:13:42.158Z,0.98
2023-01-15T08:16:11.373Z,0.60
2023-01-15T08:18:38.650Z,0.80
2023-01-15T08:21:05.898Z,2.47
2023-01-15T08:23:33.078Z,0.98
2023-01-15T08:26:00.442Z,1.52
2023-01-15T08:28:27.591Z,1.40
2023-01-15T08:30:54.881Z,1.50
2023-01-15T08:33:22.106Z,1.00
2023-01-15T08:35:49.384Z,1.92
2023-01-15T08:38:16.541Z,1.10
2023-01-15T08:40:59.232Z,1.02
2023-01-15T08:43:26.516Z,1.10
2023-01-15T08:45:53.779Z,1.17
2023-01-15T08:48:21.073Z,1.27
2023-01-15T08:50:48.333Z,1.30
2023-01-15T08:53:15.620Z,1.27
2023-01-15T08:55:42.899Z,0.90
2023-01-15T08:58:10.167Z,1.10
2023-01-15T09:00:37.771Z,1.13
2023-01-15T09:03:05.089Z,1.20
2023-01-15T09:05:32.269Z,1.10
2023-01-15T09:07:59.579Z,1.52
2023-01-15T09:10:27.239Z,1.23
2023-01-15T09:12:55.313Z,1.42
2023-01-15T09:15:22.545Z,1.40
2023-01-15T09:17:49.809Z,1.60
2023-01-15T09:20:17.066Z,1.75
2023-01-15T09:22:44.331Z,1.83
2023-01-15T09:25:11.596Z,1.70
2023-01-15T09:27:38.962Z,2.58
2023-01-15T09:30:07.174Z,1.40
2023-01-15T09:32:34.389Z,1.58
2023-01-15T09:35:02.431Z,2.22
2023-01-15T09:37:29.661Z,1.50
2023-01-15T09:39:56.947Z,1.30
2023-01-15T09:42:24.132Z,1.25
2023-01-15T09:44:51.446Z,1.33
2023-01-15T09:47:18.825Z,1.60
2023-01-15T09:49:46.054Z,1.15
2023-01-15T09:52:13.289Z,1.55
2023-01-15T09:54:40.544Z,1.42
2023-01-15T09:57:07.787Z,1.10
2023-01-15T09:59:35.206Z,1.17
2023-01-15T10:02:02.427Z,1.15
2023-01-15T10:04:29.738Z,1.45
2023-01-15T10:06:56.986Z,1.45
2023-01-15T10:09:24.234Z,1.50
2023-01-15T10:12:10.324Z,2.20
2023-01-15T10:14:39.629Z,1.63
2023-01-15T10:17:07.431Z,1.58
2023-01-15T10:19:44.324Z,1.17
2023-01-15T10:22:12.120Z,1.65
2023-01-15T10:24:39.502Z,1.42
2023-01-15T10:27:06.755Z,1.42
2023-01-15T10:29:33.977Z,1.20
2023-01-15T10:32:01.255Z,1.45
2023-01-15T10:34:28.446Z,2.67
2023-01-15T10:36:55.798Z,1.83
2023-01-15T10:39:23.003Z,2.15
2023-01-15T10:41:50.239Z,1.60
2023-01-15T10:44:17.406Z,1.60
2023-01-15T10:46:44.686Z,1.20
2023-01-15T10:49:12.175Z,1.85
2023-01-15T10:51:39.385Z,1.70
2023-01-15T10:54:06.602Z,1.38
2023-01-15T10:56:33.922Z,1.75
2023-01-15T10:59:01.119Z,1.52
2023-01-15T11:01:28.527Z,1.83
2023-01-15T11:03:55.824Z,2.35
2023-01-15T11:06:23.313Z,1.92
2023-01-15T11:11:56.541Z,4.05
2023-01-15T11:14:42.669Z,1.73
2023-01-15T11:17:28.671Z,1.85
2023-01-15T11:19:55.892Z,1.58
2023-01-15T11:22:23.119Z,1.65
2023-01-15T11:24:50.361Z,1.67
2023-01-15T11:27:17.614Z,2.33
2023-01-15T11:29:44.899Z,3.63
2023-01-15T11:32:12.070Z,2.92
2023-01-15T11:34:40.361Z,2.60
2023-01-15T11:37:07.508Z,2.15
2023-01-15T11:39:34.738Z,1.85
2023-01-15T11:42:20.757Z,1.27
2023-01-15T11:45:06.925Z,2.00
2023-01-15T11:47:53.132Z,2.33
2023-01-15T11:50:39.320Z,1.38
2023-01-15T11:53:06.541Z,1.88
2023-01-15T11:55:33.724Z,2.53
2023-01-15T11:58:01.031Z,2.55
2023-01-15T12:00:28.252Z,2.20
2023-01-15T12:02:56.220Z,1.55
2023-01-15T12:05:23.520Z,1.55
2023-01-15T12:07:50.819Z,2.17
2023-01-15T12:10:20.570Z,2.20
2023-01-15T12:12:47.848Z,1.75
2023-01-15T12:15:15.005Z,1.60
2023-01-15T12:17:42.219Z,1.65
2023-01-15T12:20:09.470Z,1.77
2023-01-15T12:22:36.758Z,2.58
2023-01-15T12:25:04.923Z,1.63
2023-01-15T12:27:32.174Z,1.65
2023-01-15T12:29:59.473Z,1.80
2023-01-15T12:32:26.765Z,2.28
2023-01-15T12:34:54.032Z,1.90
2023-01-15T12:37:22.640Z,2.22
2023-01-15T12:39:49.836Z,1.50
2023-01-15T12:42:35.896Z,2.70
2023-01-15T12:45:07.799Z,1.73
2023-01-15T12:47:35.119Z,2.92
2023-01-15T12:50:02.367Z,2.50
2023-01-15T12:52:29.712Z,2.78
2023-01-15T12:54:57.015Z,1.70
2023-01-15T12:57:24.340Z,1.30
2023-01-15T12:59:51.587Z,1.60
2023-01-15T13:02:20.315Z,3.60
2023-01-15T13:04:47.605Z,1.55
2023-01-15T13:07:14.838Z,1.70
2023-01-15T13:09:42.015Z,1.70
2023-01-15T13:12:09.374Z,1.77
2023-01-15T13:14:37.557Z,2.42
2023-01-15T13:17:04.819Z,1.60
2023-01-15T13:19:32.059Z,2.53
2023-01-15T13:21:59.345Z,2.75
2023-01-15T13:24:26.524Z,1.70
2023-01-15T13:26:54.598Z,2.95
2023-01-15T13:29:21.762Z,1.60
2023-01-15T13:31:49.142Z,1.70
2023-01-15T13:34:16.358Z,1.33
2023-01-15T13:36:45.519Z,2.30
2023-01-15T13:39:12.984Z,1.42
2023-01-15T13:41:59.117Z,1.55
2023-01-15T13:44:26.371Z,1.35
2023-01-15T13:46:53.609Z,1.05
2023-01-15T13:49:20.899Z,1.67
2023-01-15T13:51:48.065Z,1.75
2023-01-15T13:54:16.204Z,1.60
2023-01-15T13:56:44.744Z,1.98
2023-01-15T13:59:11.986Z,2.05
2023-01-15T14:01:39.288Z,2.15
2023-01-15T14:04:06.767Z,2.30
2023-01-15T14:06:33.968Z,2.13
2023-01-15T14:09:01.228Z,2.10
2023-01-15T14:11:28.469Z,1.58
2023-01-15T14:13:55.789Z,1.67
2023-01-15T14:16:23.806Z,1.88
2023-01-15T14:18:51.179Z,1.65
2023-01-15T14:21:18.504Z,1.23
2023-01-15T14:23:45.901Z,1.92
2023-01-15T14:26:13.226Z,1.48
2023-01-15T14:28:40.605Z,1.58
2023-01-15T14:31:07.816Z,1.40
2023-01-15T14:33:35.032Z,1.70
2023-01-15T14:36:02.198Z,2.33
2023-01-15T14:38:29.541Z,1.63
2023-01-15T14:40:56.850Z,1.92
2023-01-15T14:43:26.052Z,1.70
2023-01-15T14:45:53.400Z,1.40
2023-01-15T14:48:20.727Z,2.03
2023-01-15T14:50:48.831Z,2.13
2023-01-15T14:53:16.245Z,1.70
2023-01-15T14:55:43.437Z,2.10
2023-01-15T14:58:11.684Z,2.30
2023-01-15T15:00:38.866Z,2.72
2023-01-15T15:03:06.178Z,2.38
2023-01-15T15:05:33.387Z,2.40
2023-01-15T15:08:00.638Z,2.65
2023-01-15T15:10:27.887Z,2.10
2023-01-15T15:12:55.877Z,2.30
2023-01-15T15:15:23.050Z,2.50
2023-01-15T15:17:50.384Z,2.85
2023-01-15T15:20:17.578Z,2.65
2023-01-15T15:22:44.838Z,2.15
2023-01-15T15:25:12.135Z,2.00
2023-01-15T15:27:39.420Z,2.45
2023-01-15T15:30:06.680Z,3.22
2023-01-15T15:32:40.073Z,2.50
2023-01-15T15:35:07.333Z,2.75
2023-01-15T15:37:35.088Z,1.95
2023-01-15T15:40:02.382Z,2.13
2023-01-15T15:42:48.542Z,2.20
2023-01-15T15:45:34.842Z,1.98
2023-01-15T15:48:20.859Z,2.40
2023-01-15T15:50:48.180Z,1.50
2023-01-15T15:53:15.367Z,2.55
2023-01-15T15:55:42.729Z,2.25
2023-01-15T15:58:09.978Z,1.70
2023-01-15T16:00:37.286Z,1.98
2023-01-15T16:03:04.505Z,1.92
2023-01-15T16:05:32.260Z,2.13
2023-01-15T16:07:59.521Z,2.70
2023-01-15T16:10:26.776Z,3.03
2023-01-15T16:12:54.000Z,2.40
2023-01-15T16:15:21.224Z,3.65
2023-01-15T16:17:48.487Z,3.60
2023-01-15T16:20:16.473Z,2.30
2023-01-15T16:22:43.723Z,2.20
2023-01-15T16:25:10.924Z,3.53
2023-01-15T16:27:38.419Z,4.30
2023-01-15T16:30:05.826Z,2.42
2023-01-15T16:32:33.086Z,1.98
2023-01-15T16:35:00.252Z,2.17
2023-01-15T16:37:27.644Z,2.00
2023-01-15T16:39:54.869Z,2.47
2023-01-15T16:42:22.119Z,2.63
2023-01-15T16:44:49.443Z,2.42
2023-01-15T16:47:16.707Z,3.78
2023-01-15T16:49:43.939Z,3.58
2023-01-15T16:52:11.187Z,3.40
2023-01-15T16:54:38.417Z,3.00
2023-01-15T16:57:05.693Z,3.83
2023-01-15T16:59:33.285Z,3.80
2023-01-15T17:02:00.680Z,3.58
2023-01-15T17:04:27.913Z,3.80
2023-01-15T17:06:55.187Z,4.30
2023-01-15T17:09:22.432Z,4.00
2023-01-15T17:11:49.620Z,3.63
2023-01-15T17:14:16.783Z,3.08
2023-01-15T17:16:44.064Z,3.30
2023-01-15T17:19:11.238Z,2.92
2023-01-15T17:21:38.857Z,3.47
2023-01-15T17:24:06.081Z,3.50
2023-01-15T17:26:33.330Z,3.03
2023-01-15T17:29:00.504Z,3.63
2023-01-15T17:31:29.549Z,3.53
2023-01-15T17:33:56.831Z,3.30
2023-01-15T17:36:24.139Z,2.60
2023-01-15T17:38:51.397Z,2.65
2023-01-15T17:41:18.641Z,2.90
2023-01-15T17:43:45.796Z,6.05
2023-01-15T17:46:13.091Z,5.07
2023-01-15T17:48:40.476Z,4.20
2023-01-15T17:51:07.738Z,3.10
2023-01-15T17:53:36.181Z,3.95
2023-01-15T17:56:22.190Z,2.65
2023-01-15T17:59:08.269Z,2.47
2023-01-15T18:01:54.340Z,2.70
2023-01-15T18:04:40.424Z,3.42
2023-01-15T18:07:07.703Z,2.78
2023-01-15T18:09:34.922Z,2.50
2023-01-15T18:12:02.323Z,3.45
2023-01-15T18:14:29.539Z,3.83
2023-01-15T18:16:56.759Z,2.17
2023-01-15T18:19:23.968Z,3.30
2023-01-15T18:21:51.194Z,1.70
2023-01-15T18:24:21.948Z,2.63
2023-01-15T18:26:51.937Z,2.47
2023-01-15T18:29:19.767Z,3.30
2023-01-15T18:31:47.096Z,1.80
2023-01-15T18:34:14.374Z,1.50
2023-01-15T18:36:41.790Z,1.77
2023-01-15T18:39:12.427Z,1.65
2023-01-15T18:41:39.752Z,2.47
2023-01-15T18:44:25.726Z,1.80
2023-01-15T18:46:53.123Z,2.65
2023-01-15T18:49:20.380Z,1.90
2023-01-15T18:52:07.562Z,2.50
2023-01-15T18:54:34.885Z,2.00
2023-01-15T18:57:02.089Z,1.70
2023-01-15T18:59:29.401Z,1.75
2023-01-15T19:01:56.702Z,2.17
2023-01-15T19:04:23.973Z,1.70
2023-01-15T19:06:51.142Z,2.17
2023-01-15T19:09:21.123Z,2.15
2023-01-15T19:11:48.449Z,1.60
2023-01-15T19:14:34.523Z,2.10
2023-01-15T19:17:20.629Z,2.45
2023-01-15T19:19:48.744Z,2.08
2023-01-15T19:22:34.779Z,1.75
2023-01-15T19:25:02.079Z,2.75
2023-01-15T19:27:29.269Z,2.35
2023-01-15T19:29:56.583Z,2.17
2023-01-15T19:32:23.782Z,2.88
2023-01-15T19:34:52.798Z,2.00
2023-01-15T19:37:20.065Z,2.45
2023-01-15T19:39:47.255Z,2.50
2023-01-15T19:42:34.763Z,2.88
2023-01-15T19:45:20.881Z,2.90
2023-01-15T19:48:06.900Z,3.08
2023-01-15T19:50:34.190Z,3.25
2023-01-15T19:53:01.364Z,2.72
2023-01-15T19:55:28.617Z,2.28
2023-01-15T19:57:55.817Z,2.63
2023-01-15T20:00:23.077Z,4.28
2023-01-15T20:02:50.316Z,3.75
2023-01-15T20:05:17.652Z,4.18
2023-01-15T20:07:44.869Z,4.95
2023-01-15T20:10:12.206Z,4.85
2023-01-15T20:12:58.350Z,4.57
2023-01-15T20:15:25.608Z,5.35
2023-01-15T20:17:52.773Z,4.53
2023-01-15T20:20:20.086Z,5.15
2023-01-15T20:22:47.300Z,3.95
2023-01-15T20:25:14.531Z,4.53
2023-01-15T20:27:41.827Z,4.28
2023-01-15T20:30:09.192Z,3.05
2023-01-15T20:32:36.427Z,5.53
2023-01-15T20:35:03.670Z,4.03
2023-01-15T20:37:30.859Z,3.92
2023-01-15T20:39:58.125Z,3.28
2023-01-15T20:42:44.175Z,4.32
2023-01-15T20:45:11.350Z,4.88
2023-01-15T20:47:57.435Z,4.35
2023-01-15T20:50:24.817Z,3.20
2023-01-15T20:52:52.920Z,5.72
2023-01-15T20:55:20.210Z,4.05
2023-01-15T20:57:47.451Z,2.97
2023-01-15T21:00:14.784Z,3.22
2023-01-15T21:02:42.046Z,3.08
2023-01-15T21:05:09.356Z,2.78
2023-01-15T21:07:36.584Z,2.17
2023-01-15T21:10:03.959Z,4.18
2023-01-15T21:12:31.143Z,3.95
2023-01-15T21:14:58.376Z,3.78
2023-01-15T21:17:25.582Z,3.88
2023-01-15T21:19:52.839Z,3.45
2023-01-15T21:22:20.021Z,2.83
2023-01-15T21:24:51.573Z,3.38
2023-01-15T21:27:18.920Z,3.33
2023-01-15T21:29:46.123Z,2.60
2023-01-15T21:32:13.434Z,2.97
2023-01-15T21:34:40.625Z,3.70
2023-01-15T21:37:07.831Z,3.15
2023-01-15T21:39:35.100Z,3.35
2023-01-15T21:42:21.106Z,3.45
2023-01-15T21:44:48.431Z,4.57
2023-01-15T21:47:15.651Z,3.30
2023-01-15T21:49:42.950Z,4.75
2023-01-15T21:52:10.242Z,5.35
2023-01-15T21:54:37.505Z,3.63
2023-01-15T21:57:04.753Z,4.25
2023-01-15T21:59:31.976Z,4.32
2023-01-15T22:01:59.316Z,3.75
2023-01-15T22:04:26.634Z,3.30
2023-01-15T22:06:53.827Z,3.70
2023-01-15T22:09:21.091Z,4.00
2023-01-15T22:11:48.531Z,3.83
2023-01-15T22:14:15.813Z,5.35
2023-01-15T22:16:43.014Z,3.95
2023-01-15T22:19:10.352Z,3.85
2023-01-15T22:21:37.614Z,3.72
2023-01-15T22:24:05.223Z,4.07
2023-01-15T22:26:32.992Z,3.22
2023-01-15T22:29:00.183Z,3.38
2023-01-15T22:31:27.490Z,3.95
2023-01-15T22:33:54.725Z,4.82
2023-01-15T22:36:24.135Z,6.13
2023-01-15T22:38:54.574Z,5.25
2023-01-15T22:41:40.881Z,3.65
2023-01-15T22:44:08.151Z,6.25
2023-01-15T22:46:35.424Z,3.95
2023-01-15T22:49:02.757Z,4.03
2023-01-15T22:51:29.914Z,3.17
2023-01-15T22:53:57.232Z,3.88
2023-01-15T22:56:24.498Z,3.38
2023-01-15T22:58:51.794Z,3.20
2023-01-15T23:01:19.103Z,3.67
2023-01-15T23:03:46.441Z,3.17
2023-01-15T23:06:13.730Z,2.88
2023-01-15T23:08:40.970Z,2.95
2023-01-15T23:11:08.177Z,3.25
2023-01-15T23:13:35.473Z,2.95
2023-01-15T23:16:02.713Z,2.50
2023-01-15T23:18:34.650Z,2.92
2023-01-15T23:21:01.931Z,3.35
2023-01-15T23:23:29.189Z,3.28
2023-01-15T23:25:56.433Z,3.17
2023-01-15T23:28:23.642Z,3.17
2023-01-15T23:30:50.870Z,5.70
2023-01-15T23:33:18.136Z,3.03
2023-01-15T23:35:45.479Z,2.88
2023-01-15T23:38:12.636Z,6.40
2023-01-15T23:40:39.953Z,3.00
2023-01-15T23:43:25.971Z,3.10
2023-01-15T23:46:12.268Z,3.03
2023-01-15T23:48:39.543Z,3.08
2023-01-15T23:51:06.736Z,2.75
2023-01-15T23:53:34.010Z,2.97
2023-01-15T23:56:01.265Z,3.42
2023-01-15T23:58:28.459Z,3.17
